Time;durP1;ratioP1;P1;durP2;ratioP2;P2;SDS_P1;SDS_P2;PMS_P1;PMS_P2;Temp;Humidity;BMP_temperature;BMP_pressure;BME280_temperature;BME280_humidity;BME280_pressure;Samples;Min_cycle;Max_cycle;Signal;HPM_P1;HPM_P2
2023/05/12 00:00:15;;;;;;;14.15;10.65;;;11.30;99.90;;;;;;5047826;28;20128;-62
2023/05/12 00:02:41;;;;;;;15.82;10.45;;;11.30;99.90;;;;;;5057016;28;20523;-61
2023/05/12 00:05:07;;;;;;;14.13;10.07;;;11.40;99.90;;;;;;5046437;28;20052;-61
2023/05/12 00:07:33;;;;;;;12.32;9.07;;;11.40;99.90;;;;;;5042594;28;20048;-62
2023/05/12 00:09:58;;;;;;;11.95;8.88;;;11.40;99.90;;;;;;5041289;28;20071;-63
2023/05/12 00:12:24;;;;;;;12.07;9.00;;;11.40;99.90;;;;;;5047977;28;20411;-61
2023/05/12 00:14:50;;;;;;;10.25;8.18;;;11.40;99.90;;;;;;5048351;28;20048;-62
2023/05/12 00:17:16;;;;;;;8.95;7.47;;;11.40;99.90;;;;;;5045833;28;20048;-61
2023/05/12 00:19:42;;;;;;;8.80;6.95;;;11.40;99.90;;;;;;5047365;28;20044;-62
2023/05/12 00:22:10;;;;;;;8.80;7.32;;;11.40;99.90;;;;;;5046115;28;20048;-62
2023/05/12 00:24:36;;;;;;;8.40;7.10;;;11.40;99.90;;;;;;5049230;28;20040;-61
2023/05/12 00:27:01;;;;;;;9.90;7.30;;;11.40;99.90;;;;;;5044508;28;20037;-62
2023/05/12 00:29:27;;;;;;;10.25;7.18;;;11.40;99.90;;;;;;5047648;28;20040;-61
2023/05/12 00:31:54;;;;;;;8.48;6.72;;;11.40;99.90;;;;;;5034380;28;20037;-61
2023/05/12 00:34:20;;;;;;;8.80;6.85;;;11.40;99.90;;;;;;5051689;28;20033;-60
2023/05/12 00:36:45;;;;;;;9.68;7.30;;;11.40;99.90;;;;;;5050916;28;20476;-60
2023/05/12 00:39:11;;;;;;;10.75;7.22;;;11.40;99.90;;;;;;5051058;28;20068;-61
2023/05/12 00:41:37;;;;;;;9.98;7.55;;;11.40;99.90;;;;;;5052717;28;20060;-61
2023/05/12 00:44:03;;;;;;;10.07;7.88;;;11.40;99.90;;;;;;5050047;28;20032;-60
2023/05/12 00:46:29;;;;;;;10.15;7.95;;;11.40;99.90;;;;;;5053639;28;20057;-61
2023/05/12 00:48:54;;;;;;;10.35;8.00;;;11.40;99.90;;;;;;5049803;28;20120;-60
2023/05/12 00:51:20;;;;;;;9.50;8.18;;;11.40;99.90;;;;;;5050372;28;20164;-62
2023/05/12 00:53:47;;;;;;;9.63;8.10;;;11.40;99.90;;;;;;5051964;28;20106;-62
2023/05/12 00:56:15;;;;;;;12.07;9.52;;;11.40;99.90;;;;;;5047653;28;20072;-61
2023/05/12 00:58:41;;;;;;;11.45;8.85;;;11.40;99.90;;;;;;5046785;28;20038;-62
2023/05/12 01:01:06;;;;;;;11.57;9.13;;;11.40;99.90;;;;;;5042857;28;20041;-61
2023/05/12 01:03:32;;;;;;;15.07;10.18;;;11.40;99.90;;;;;;5045696;28;20035;-61
2023/05/12 01:06:10;;;;;;;14.70;10.20;;;11.50;99.90;;;;;;5043781;28;20041;-61
2023/05/12 01:08:36;;;;;;;15.07;10.70;;;11.50;99.90;;;;;;5047824;28;20053;-60
2023/05/12 01:11:01;;;;;;;18.60;11.35;;;11.50;99.90;;;;;;5049968;28;20053;-60
2023/05/12 01:13:27;;;;;;;15.88;11.60;;;11.50;99.90;;;;;;5030092;28;20614;-61
2023/05/12 01:15:55;;;;;;;17.20;12.27;;;11.50;99.90;;;;;;5045539;28;20036;-61
2023/05/12 01:18:23;;;;;;;16.77;11.68;;;11.40;99.90;;;;;;5046893;28;20400;-61
2023/05/12 01:20:50;;;;;;;18.85;12.55;;;11.40;99.90;;;;;;5048514;28;20119;-61
2023/05/12 01:23:18;;;;;;;21.80;13.60;;;11.40;99.90;;;;;;5047980;28;20497;-60
2023/05/12 01:25:47;;;;;;;17.95;12.48;;;11.40;99.90;;;;;;5051107;28;20045;-62
2023/05/12 01:28:14;;;;;;;20.35;12.57;;;11.40;99.90;;;;;;5065426;28;20063;-61
2023/05/12 01:30:42;;;;;;;22.73;13.60;;;11.40;99.90;;;;;;5051590;28;20412;-61
2023/05/12 01:33:08;;;;;;;19.73;12.98;;;11.40;99.90;;;;;;5042407;28;20040;-61
2023/05/12 01:35:34;;;;;;;22.60;13.70;;;11.40;99.90;;;;;;5052253;28;20480;-61
2023/05/12 01:38:00;;;;;;;21.08;13.27;;;11.50;99.90;;;;;;5051431;28;20040;-61
2023/05/12 01:40:25;;;;;;;23.60;14.50;;;11.50;99.90;;;;;;5048320;28;20033;-60
2023/05/12 01:42:51;;;;;;;25.73;14.05;;;11.50;99.90;;;;;;5048926;28;20154;-61
2023/05/12 01:45:17;;;;;;;26.88;15.23;;;11.50;99.90;;;;;;5050749;28;20515;-62
2023/05/12 01:47:42;;;;;;;24.00;15.75;;;11.50;99.90;;;;;;5048047;28;20041;-60
2023/05/12 01:50:09;;;;;;;25.67;14.60;;;11.50;99.90;;;;;;5051804;28;20065;-61
2023/05/12 01:52:34;;;;;;;27.92;15.82;;;11.50;99.90;;;;;;5046079;28;20037;-61
2023/05/12 01:55:00;;;;;;;26.98;16.27;;;11.50;99.90;;;;;;5047538;28;20415;-60
2023/05/12 01:57:26;;;;;;;30.60;17.33;;;11.50;99.90;;;;;;5052245;28;20045;-61
2023/05/12 01:59:51;;;;;;;27.23;16.05;;;11.50;99.90;;;;;;5047004;28;20991;-60
2023/05/12 02:02:17;;;;;;;27.13;16.20;;;11.50;99.90;;;;;;5048529;28;20048;-60
2023/05/12 02:04:42;;;;;;;31.13;17.33;;;11.50;99.90;;;;;;5045424;28;20123;-60
2023/05/12 02:07:08;;;;;;;31.98;18.00;;;11.60;99.90;;;;;;5049906;28;20032;-61
2023/05/12 02:09:34;;;;;;;32.22;18.83;;;11.60;99.90;;;;;;5048359;28;20052;-59
2023/05/12 02:12:01;;;;;;;33.45;18.85;;;11.60;99.90;;;;;;5050394;28;20044;-60
2023/05/12 02:14:26;;;;;;;43.03;21.88;;;11.60;99.90;;;;;;5063932;28;20067;-61
2023/05/12 02:16:54;;;;;;;39.25;22.55;;;11.60;99.90;;;;;;5048957;28;20104;-61
2023/05/12 02:19:20;;;;;;;43.30;22.67;;;11.60;99.90;;;;;;5047332;28;20060;-61
2023/05/12 02:21:46;;;;;;;42.17;22.88;;;11.60;99.90;;;;;;5051772;28;20220;-62
2023/05/12 02:24:11;;;;;;;40.08;22.25;;;11.60;99.90;;;;;;5048078;28;20048;-61
2023/05/12 02:26:37;;;;;;;44.13;24.02;;;11.70;99.90;;;;;;5050387;28;20385;-60
2023/05/12 02:29:03;;;;;;;43.10;23.92;;;11.70;99.90;;;;;;5046390;28;20036;-62
2023/05/12 02:31:28;;;;;;;47.78;22.90;;;11.70;99.90;;;;;;5037997;28;20088;-61
2023/05/12 02:33:54;;;;;;;45.47;25.38;;;11.70;99.90;;;;;;5041965;28;20108;-62
2023/05/12 02:36:19;;;;;;;46.45;25.48;;;11.70;99.90;;;;;;5037891;28;20716;-60
2023/05/12 02:38:45;;;;;;;47.30;25.77;;;11.70;99.90;;;;;;5037057;28;20676;-63
2023/05/12 02:41:11;;;;;;;45.58;25.90;;;11.70;99.90;;;;;;5050575;28;20060;-62
2023/05/12 02:43:36;;;;;;;43.92;24.60;;;11.70;99.90;;;;;;5035286;28;20603;-60
2023/05/12 02:46:02;;;;;;;48.47;26.05;;;11.80;99.90;;;;;;5037568;28;20097;-61
2023/05/12 02:48:28;;;;;;;43.58;24.67;;;11.80;99.90;;;;;;5036814;28;20048;-60
2023/05/12 02:50:53;;;;;;;44.53;25.50;;;11.80;99.90;;;;;;5046835;28;20080;-61
2023/05/12 02:53:19;;;;;;;43.90;24.95;;;11.80;99.90;;;;;;5050860;28;20095;-62
2023/05/12 02:55:45;;;;;;;46.53;25.02;;;11.80;99.90;;;;;;5047568;28;20065;-61
2023/05/12 02:58:10;;;;;;;39.97;23.35;;;11.80;99.90;;;;;;5038146;28;20041;-61
2023/05/12 03:00:36;;;;;;;41.97;24.67;;;11.90;99.90;;;;;;5047829;28;20040;-63
2023/05/12 03:03:02;;;;;;;44.75;25.80;;;11.90;99.90;;;;;;5048184;28;20041;-61
2023/05/12 03:05:28;;;;;;;39.00;23.67;;;11.90;99.90;;;;;;5049265;28;20557;-62
2023/05/12 03:07:53;;;;;;;40.40;23.25;;;11.90;99.90;;;;;;5047396;28;20495;-60
2023/05/12 03:10:19;;;;;;;44.40;23.70;;;11.90;99.90;;;;;;5055676;28;20147;-60
2023/05/12 03:12:44;;;;;;;40.80;23.80;;;11.90;99.90;;;;;;5045650;28;20084;-61
2023/05/12 03:15:10;;;;;;;46.22;24.73;;;11.90;99.90;;;;;;5048311;28;20369;-61
2023/05/12 03:17:36;;;;;;;41.55;23.95;;;11.90;99.90;;;;;;5050321;28;20029;-61
2023/05/12 03:20:02;;;;;;;38.90;23.48;;;11.90;99.90;;;;;;5047472;28;20033;-60
2023/05/12 03:22:28;;;;;;;41.47;24.05;;;12.00;99.90;;;;;;5045996;28;20036;-61
2023/05/12 03:24:54;;;;;;;40.92;23.80;;;11.90;99.90;;;;;;5046719;28;20037;-61
2023/05/12 03:27:19;;;;;;;45.92;24.83;;;11.90;99.90;;;;;;5046310;28;20044;-61
2023/05/12 03:29:45;;;;;;;40.55;24.58;;;12.00;99.90;;;;;;5042192;28;20041;-62
2023/05/12 03:32:11;;;;;;;42.03;24.67;;;12.00;99.90;;;;;;5048925;28;20132;-60
2023/05/12 03:34:37;;;;;;;37.85;24.10;;;12.00;99.90;;;;;;5044589;28;20033;-60
2023/05/12 03:37:02;;;;;;;42.40;24.60;;;12.00;99.90;;;;;;5048959;28;20117;-61
2023/05/12 03:39:28;;;;;;;40.90;24.98;;;12.00;99.90;;;;;;5048412;28;20595;-60
2023/05/12 03:41:53;;;;;;;43.55;24.20;;;12.00;99.90;;;;;;5047588;28;20112;-61
2023/05/12 03:44:19;;;;;;;47.55;25.50;;;12.00;99.90;;;;;;5040825;28;20116;-62
2023/05/12 03:46:45;;;;;;;41.92;25.30;;;12.00;99.90;;;;;;5040434;28;20033;-61
2023/05/12 03:49:10;;;;;;;45.10;25.00;;;12.00;99.90;;;;;;5047608;28;20033;-62
2023/05/12 03:51:36;;;;;;;47.53;26.67;;;12.00;99.90;;;;;;5047726;28;20063;-62
2023/05/12 03:54:02;;;;;;;43.45;25.13;;;12.00;99.90;;;;;;5048098;28;20033;-62
2023/05/12 03:56:28;;;;;;;42.85;24.40;;;12.10;99.90;;;;;;5045933;28;20045;-62
2023/05/12 03:58:53;;;;;;;47.70;25.40;;;12.10;99.90;;;;;;5047865;28;20072;-60
2023/05/12 04:01:19;;;;;;;42.70;25.00;;;12.10;99.90;;;;;;5047114;28;20091;-62
2023/05/12 04:03:45;;;;;;;42.15;25.77;;;12.10;99.90;;;;;;5043763;28;20407;-61
2023/05/12 04:06:11;;;;;;;45.30;25.48;;;12.00;99.90;;;;;;5036969;28;20040;-61
2023/05/12 04:08:36;;;;;;;41.58;25.13;;;12.10;99.90;;;;;;5042986;28;20151;-60
2023/05/12 04:11:03;;;;;;;43.42;25.50;;;12.10;99.90;;;;;;5046226;28;20056;-61
2023/05/12 04:13:30;;;;;;;45.78;25.98;;;12.10;99.90;;;;;;5046025;28;20045;-62
2023/05/12 04:15:59;;;;;;;44.92;26.08;;;12.10;99.90;;;;;;5045670;28;20048;-61
2023/05/12 04:18:26;;;;;;;49.45;26.60;;;12.10;99.90;;;;;;5044159;28;20029;-61
2023/05/12 04:20:53;;;;;;;45.03;25.67;;;12.10;99.90;;;;;;5047550;28;20041;-62
2023/05/12 04:23:18;;;;;;;43.97;25.17;;;12.10;99.90;;;;;;5048682;28;20115;-61
2023/05/12 04:25:44;;;;;;;43.00;25.40;;;12.10;99.90;;;;;;5039879;28;20163;-61
2023/05/12 04:28:10;;;;;;;48.63;28.00;;;12.10;99.90;;;;;;5039806;28;20041;-62
2023/05/12 04:30:38;;;;;;;44.28;26.45;;;12.10;99.90;;;;;;5040667;28;20484;-61
2023/05/12 04:33:04;;;;;;;43.70;24.98;;;12.10;99.90;;;;;;5045595;28;20124;-60
2023/05/12 04:35:30;;;;;;;41.35;24.38;;;12.10;99.90;;;;;;5048416;28;20116;-60
2023/05/12 04:37:55;;;;;;;40.63;25.30;;;12.10;99.90;;;;;;5045886;28;20048;-61
2023/05/12 04:40:21;;;;;;;43.72;25.83;;;12.20;99.90;;;;;;5046834;28;20106;-62
2023/05/12 04:42:47;;;;;;;44.70;25.60;;;12.20;99.90;;;;;;5048968;28;20120;-60
2023/05/12 04:45:12;;;;;;;46.53;26.73;;;12.20;99.90;;;;;;5045131;28;20056;-61
2023/05/12 04:47:38;;;;;;;41.95;26.13;;;12.20;99.90;;;;;;5046170;28;20079;-62
2023/05/12 04:50:04;;;;;;;45.45;25.95;;;12.30;99.90;;;;;;5044830;28;20828;-61
2023/05/12 04:52:30;;;;;;;44.85;25.83;;;12.30;99.90;;;;;;5047678;28;20513;-60
2023/05/12 04:54:56;;;;;;;43.30;26.17;;;12.30;99.90;;;;;;5046320;28;20033;-60
2023/05/12 04:57:22;;;;;;;45.45;25.73;;;12.30;99.90;;;;;;5048169;28;20543;-60
2023/05/12 04:59:47;;;;;;;44.10;27.00;;;12.40;99.90;;;;;;5058962;28;20048;-62
2023/05/12 05:02:13;;;;;;;42.25;26.65;;;12.40;99.90;;;;;;5045774;28;20045;-61
2023/05/12 05:04:39;;;;;;;42.42;26.60;;;12.40;99.90;;;;;;5046597;28;20040;-60
2023/05/12 05:07:05;;;;;;;47.03;27.55;;;12.50;99.90;;;;;;5046416;28;20040;-61
2023/05/12 05:09:30;;;;;;;41.20;25.85;;;12.50;99.90;;;;;;5047101;28;20063;-62
2023/05/12 05:11:56;;;;;;;44.78;25.83;;;12.50;99.90;;;;;;5044116;28;20041;-62
2023/05/12 05:14:22;;;;;;;40.55;24.80;;;12.50;99.90;;;;;;5045243;28;20049;-62
2023/05/12 05:16:48;;;;;;;40.38;25.30;;;12.50;99.90;;;;;;5049613;28;20033;-62
2023/05/12 05:19:14;;;;;;;40.05;25.92;;;12.50;99.90;;;;;;5051400;28;20036;-60
2023/05/12 05:21:40;;;;;;;40.80;26.42;;;12.60;99.90;;;;;;5046262;28;20046;-61
2023/05/12 05:24:06;;;;;;;42.83;26.85;;;12.60;99.90;;;;;;5049769;28;20441;-63
2023/05/12 05:26:31;;;;;;;41.28;25.00;;;12.60;99.90;;;;;;5048629;28;20041;-61
2023/05/12 05:28:57;;;;;;;40.53;25.33;;;12.70;99.90;;;;;;5048989;28;20029;-61
2023/05/12 05:31:23;;;;;;;38.65;24.73;;;12.70;99.90;;;;;;5052168;28;20049;-62
2023/05/12 05:33:48;;;;;;;37.85;24.75;;;12.70;99.90;;;;;;5068211;28;20044;-61
2023/05/12 05:36:15;;;;;;;38.92;24.88;;;12.80;99.90;;;;;;5052685;28;20071;-62
2023/05/12 05:38:41;;;;;;;38.88;25.55;;;12.80;99.90;;;;;;5050210;28;20401;-62
2023/05/12 05:41:07;;;;;;;37.40;24.67;;;12.90;99.90;;;;;;5066452;28;20043;-61
2023/05/12 05:43:33;;;;;;;36.78;24.58;;;12.90;99.90;;;;;;5068348;28;20029;-62
2023/05/12 05:45:58;;;;;;;38.83;24.45;;;12.90;99.90;;;;;;5067919;28;20037;-62
2023/05/12 05:48:24;;;;;;;37.95;24.50;;;13.00;99.90;;;;;;5052699;28;20502;-61
2023/05/12 05:50:51;;;;;;;37.65;24.58;;;13.00;99.90;;;;;;5066135;28;20136;-61
2023/05/12 05:53:20;;;;;;;34.90;24.85;;;13.00;99.90;;;;;;5051831;28;20075;-62
2023/05/12 05:55:50;;;;;;;36.78;24.30;;;13.10;99.90;;;;;;5051234;28;20090;-62
2023/05/12 05:58:16;;;;;;;33.55;22.38;;;13.00;99.90;;;;;;5050856;28;20037;-62
2023/05/12 06:00:42;;;;;;;33.28;23.60;;;13.00;99.90;;;;;;5051165;28;20045;-61
2023/05/12 06:03:08;;;;;;;32.65;23.23;;;13.10;99.90;;;;;;5050710;28;20033;-61
2023/05/12 06:05:34;;;;;;;31.83;22.15;;;13.10;99.90;;;;;;5052383;28;20381;-61
2023/05/12 06:08:00;;;;;;;35.42;22.90;;;13.10;99.90;;;;;;5048633;28;20053;-61
2023/05/12 06:10:25;;;;;;;35.38;22.50;;;13.10;99.90;;;;;;5052316;28;20052;-61
2023/05/12 06:12:51;;;;;;;34.67;22.48;;;13.10;99.90;;;;;;5050732;28;20484;-62
2023/05/12 06:15:17;;;;;;;31.38;22.38;;;13.10;99.90;;;;;;5048413;28;20504;-61
2023/05/12 06:17:43;;;;;;;33.38;22.98;;;13.10;99.90;;;;;;5052328;28;20506;-61
2023/05/12 06:20:09;;;;;;;34.60;22.17;;;13.20;99.90;;;;;;5050925;28;20040;-62
2023/05/12 06:22:35;;;;;;;35.28;21.63;;;13.20;99.90;;;;;;5050869;28;20400;-61
2023/05/12 06:25:01;;;;;;;32.83;23.33;;;13.20;99.90;;;;;;5051009;28;20049;-61
2023/05/12 06:27:27;;;;;;;34.70;23.58;;;13.20;99.90;;;;;;5066625;28;20132;-62
2023/05/12 06:29:53;;;;;;;31.98;22.42;;;13.30;99.90;;;;;;5052195;28;20112;-61
2023/05/12 06:32:18;;;;;;;32.47;22.90;;;13.30;99.90;;;;;;5051884;28;20592;-61
2023/05/12 06:34:44;;;;;;;32.42;22.58;;;13.30;99.90;;;;;;5050573;28;20045;-61
2023/05/12 06:37:10;;;;;;;34.42;22.83;;;13.30;99.90;;;;;;5052033;28;20055;-61
2023/05/12 06:39:36;;;;;;;32.15;22.17;;;13.40;99.90;;;;;;5050502;28;20115;-61
2023/05/12 06:42:01;;;;;;;31.15;21.55;;;13.40;99.90;;;;;;5067385;28;20441;-61
2023/05/12 06:44:27;;;;;;;31.33;21.30;;;13.40;99.90;;;;;;5050741;28;20087;-61
2023/05/12 06:46:53;;;;;;;33.53;22.45;;;13.40;99.90;;;;;;5050498;28;20065;-61
2023/05/12 06:49:18;;;;;;;37.10;23.23;;;13.40;99.90;;;;;;5051653;28;20103;-62
2023/05/12 06:51:44;;;;;;;34.67;22.67;;;13.40;99.90;;;;;;5051239;28;20044;-61
2023/05/12 06:54:10;;;;;;;31.27;22.05;;;13.40;99.90;;;;;;5051497;28;20491;-61
2023/05/12 06:56:36;;;;;;;30.63;21.50;;;13.50;99.90;;;;;;5050390;28;20040;-61
2023/05/12 06:59:01;;;;;;;35.10;23.42;;;13.50;99.90;;;;;;5050213;28;20040;-60
2023/05/12 07:01:28;;;;;;;34.85;22.92;;;13.50;99.90;;;;;;5033664;28;20388;-61
2023/05/12 07:03:53;;;;;;;32.60;22.70;;;13.60;99.90;;;;;;5051549;28;20049;-61
2023/05/12 07:06:20;;;;;;;34.58;22.33;;;13.70;99.90;;;;;;5049885;28;20044;-62
2023/05/12 07:08:45;;;;;;;33.65;22.80;;;13.70;99.90;;;;;;5049596;28;20060;-63
2023/05/12 07:11:11;;;;;;;34.47;22.70;;;13.80;99.90;;;;;;5049865;28;20412;-62
2023/05/12 07:13:37;;;;;;;33.95;22.73;;;13.80;99.90;;;;;;5049748;28;20068;-62
2023/05/12 07:16:03;;;;;;;33.45;23.27;;;13.80;99.90;;;;;;5049969;28;20045;-61
2023/05/12 07:18:29;;;;;;;34.33;21.92;;;13.90;99.90;;;;;;5049376;28;20056;-62
2023/05/12 07:20:55;;;;;;;34.58;22.00;;;13.90;99.90;;;;;;5050173;28;20090;-62
2023/05/12 07:23:21;;;;;;;31.58;21.77;;;14.00;99.90;;;;;;5051033;28;20068;-62
2023/05/12 07:25:46;;;;;;;33.85;21.67;;;14.10;99.90;;;;;;5050841;28;20033;-61
2023/05/12 07:28:12;;;;;;;31.83;21.80;;;14.10;99.90;;;;;;5065633;28;20489;-61
2023/05/12 07:30:38;;;;;;;32.20;21.20;;;14.20;99.90;;;;;;5048123;28;20029;-61
2023/05/12 07:33:04;;;;;;;33.00;22.67;;;14.30;99.90;;;;;;5066328;28;20048;-62
2023/05/12 07:35:30;;;;;;;31.13;21.38;;;14.30;99.90;;;;;;5050896;28;20045;-61
2023/05/12 07:37:55;;;;;;;30.50;21.75;;;14.30;99.90;;;;;;5050613;28;20044;-62
2023/05/12 07:40:21;;;;;;;31.60;21.95;;;14.40;99.90;;;;;;5033539;28;20057;-61
2023/05/12 07:42:47;;;;;;;31.55;21.45;;;14.50;99.90;;;;;;5049063;28;20040;-61
2023/05/12 07:45:13;;;;;;;30.33;20.73;;;14.60;99.90;;;;;;5049448;28;20045;-61
2023/05/12 07:47:39;;;;;;;31.50;20.92;;;14.70;99.90;;;;;;5049722;28;20060;-63
2023/05/12 07:50:05;;;;;;;29.05;20.35;;;14.70;99.90;;;;;;5050638;28;20120;-61
2023/05/12 07:52:32;;;;;;;29.38;20.80;;;14.80;99.90;;;;;;5049642;28;20060;-62
2023/05/12 07:54:57;;;;;;;32.40;21.85;;;14.90;99.90;;;;;;5049284;28;20158;-63
2023/05/12 07:57:23;;;;;;;29.98;21.55;;;15.00;99.90;;;;;;5049540;28;20128;-62
2023/05/12 07:59:49;;;;;;;30.65;20.88;;;15.10;99.90;;;;;;5049052;28;20448;-61
2023/05/12 08:02:16;;;;;;;26.17;19.95;;;15.20;99.90;;;;;;5049357;28;20072;-62
2023/05/12 08:04:42;;;;;;;28.52;20.80;;;15.20;99.90;;;;;;5050560;28;20511;-61
2023/05/12 08:07:07;;;;;;;30.30;20.90;;;15.30;99.90;;;;;;5049095;28;20052;-62
2023/05/12 08:09:33;;;;;;;28.65;20.08;;;15.40;99.90;;;;;;5050215;28;20138;-62
2023/05/12 08:12:00;;;;;;;27.58;20.67;;;15.50;99.90;;;;;;5050090;28;20128;-61
2023/05/12 08:14:25;;;;;;;26.55;20.20;;;15.60;99.90;;;;;;5066303;28;20048;-62
2023/05/12 08:16:51;;;;;;;29.35;19.98;;;15.70;99.90;;;;;;5046585;28;20450;-61
2023/05/12 08:19:17;;;;;;;25.73;18.92;;;15.70;99.90;;;;;;5049412;28;20029;-62
2023/05/12 08:21:42;;;;;;;27.58;20.05;;;15.80;99.90;;;;;;5049202;28;20059;-61
2023/05/12 08:24:08;;;;;;;28.90;20.20;;;15.80;99.90;;;;;;5032632;28;20123;-62
2023/05/12 08:26:34;;;;;;;26.30;19.45;;;15.80;99.90;;;;;;5065896;28;20083;-61
2023/05/12 08:29:00;;;;;;;24.55;18.63;;;15.80;99.90;;;;;;5048729;28;20041;-61
2023/05/12 08:31:26;;;;;;;24.55;19.10;;;15.90;99.90;;;;;;5049057;28;20044;-63
2023/05/12 08:33:52;;;;;;;26.27;18.98;;;15.90;99.90;;;;;;5048912;28;20510;-61
2023/05/12 08:36:17;;;;;;;25.15;19.10;;;15.80;99.90;;;;;;5050240;28;20040;-61
2023/05/12 08:38:43;;;;;;;26.98;19.65;;;15.80;99.90;;;;;;5049085;28;20037;-61
2023/05/12 08:41:21;;;;;;;28.23;19.98;;;15.80;99.90;;;;;;5048907;28;20048;-63
2023/05/12 08:43:51;;;;;;;31.38;20.50;;;15.80;99.90;;;;;;5049733;28;20033;-61
2023/05/12 08:46:17;;;;;;;26.70;20.10;;;15.90;99.90;;;;;;5048247;28;20037;-62
2023/05/12 08:48:46;;;;;;;26.30;20.05;;;16.00;99.90;;;;;;5048007;28;20037;-61
2023/05/12 08:51:12;;;;;;;27.67;20.60;;;16.10;99.90;;;;;;5051767;28;20119;-62
2023/05/12 08:53:40;;;;;;;27.73;20.30;;;16.20;99.90;;;;;;5053898;28;20399;-62
2023/05/12 08:56:09;;;;;;;27.73;19.63;;;16.30;99.90;;;;;;5053703;28;20179;-62
2023/05/12 08:58:36;;;;;;;26.75;19.77;;;16.30;99.90;;;;;;5052863;28;20053;-63
2023/05/12 09:01:06;;;;;;;25.80;19.27;;;16.40;99.90;;;;;;5052397;28;20479;-67
2023/05/12 09:03:33;;;;;;;26.63;18.92;;;16.60;99.90;;;;;;5052701;28;20049;-65
2023/05/12 09:06:00;;;;;;;25.50;19.58;;;16.70;99.90;;;;;;5069085;28;20037;-66
2023/05/12 09:08:28;;;;;;;24.13;18.63;;;16.80;99.90;;;;;;5052452;28;20045;-60
2023/05/12 09:10:57;;;;;;;24.50;19.35;;;16.80;99.90;;;;;;5053917;28;20037;-62
2023/05/12 09:13:54;;;;;;;23.42;19.30;;;16.90;99.90;;;;;;5052008;28;20057;-62
2023/05/12 09:16:26;;;;;;;23.48;18.88;;;17.00;99.90;;;;;;5052065;28;20044;-62
2023/05/12 09:18:53;;;;;;;23.20;17.80;;;17.10;99.90;;;;;;5053396;28;20043;-62
2023/05/12 09:21:19;;;;;;;24.58;18.65;;;17.20;99.90;;;;;;5053294;28;20080;-62
2023/05/12 09:24:11;;;;;;;21.73;17.35;;;17.40;99.90;;;;;;5053474;28;20072;-61
2023/05/12 09:26:48;;;;;;;21.50;17.40;;;17.50;99.90;;;;;;5052141;28;20045;-62
2023/05/12 09:29:15;;;;;;;20.23;17.38;;;17.60;99.90;;;;;;5053063;28;20322;-62
2023/05/12 09:32:03;;;;;;;24.00;17.80;;;17.70;99.90;;;;;;5053275;28;20545;-62
2023/05/12 09:34:30;;;;;;;23.42;17.88;;;17.80;99.90;;;;;;5053508;28;20041;-62
2023/05/12 09:36:57;;;;;;;19.92;17.15;;;17.80;99.90;;;;;;5053456;28;20037;-62
2023/05/12 09:39:23;;;;;;;21.15;17.45;;;17.80;99.90;;;;;;5052890;28;20045;-62
2023/05/12 09:41:51;;;;;;;17.38;14.80;;;17.90;99.90;;;;;;5053047;28;20159;-62
2023/05/12 09:44:17;;;;;;;20.35;16.23;;;18.10;99.90;;;;;;5052879;28;20045;-63
2023/05/12 09:46:43;;;;;;;18.73;16.15;;;18.20;99.90;;;;;;5052575;28;20068;-61
2023/05/12 09:49:10;;;;;;;19.58;16.05;;;18.20;99.90;;;;;;5051797;28;20055;-62
2023/05/12 09:51:36;;;;;;;19.25;15.55;;;18.40;99.90;;;;;;5050891;28;20036;-61
2023/05/12 09:54:02;;;;;;;18.88;15.45;;;18.40;99.90;;;;;;5064171;28;20433;-63
2023/05/12 09:56:31;;;;;;;17.50;14.88;;;18.40;99.90;;;;;;5034474;28;20049;-61
2023/05/12 09:58:57;;;;;;;18.42;15.75;;;18.40;99.90;;;;;;5051211;28;20033;-62
2023/05/12 10:01:24;;;;;;;15.90;14.20;;;18.50;99.90;;;;;;5050148;28;20041;-61
2023/05/12 10:03:58;;;;;;;14.35;12.85;;;18.70;99.90;;;;;;5034109;28;20468;-62
2023/05/12 10:06:29;;;;;;;14.48;13.00;;;18.80;99.90;;;;;;5051500;28;20051;-61
2023/05/12 10:09:23;;;;;;;14.30;12.83;;;19.10;99.90;;;;;;5051148;28;20144;-61
2023/05/12 10:11:50;;;;;;;14.68;12.27;;;19.60;99.90;;;;;;5050346;28;20128;-61
2023/05/12 10:14:16;;;;;;;14.02;12.52;;;19.80;99.90;;;;;;5050299;28;20388;-62
2023/05/12 10:16:45;;;;;;;13.40;12.00;;;19.80;99.90;;;;;;5051744;28;20040;-62
2023/05/12 10:19:12;;;;;;;14.52;12.70;;;20.10;99.90;;;;;;5050065;28;20048;-62
2023/05/12 10:21:39;;;;;;;12.70;11.35;;;20.40;99.90;;;;;;5052105;28;20044;-61
2023/05/12 10:24:05;;;;;;;12.55;11.10;;;20.50;99.90;;;;;;5066232;28;20492;-62
2023/05/12 10:26:33;;;;;;;10.52;9.43;;;20.90;99.90;;;;;;5050469;28;20045;-63
2023/05/12 10:28:59;;;;;;;11.57;8.55;;;21.20;99.90;;;;;;5033245;28;20045;-62
2023/05/12 10:31:26;;;;;;;9.90;8.88;;;21.40;99.90;;;;;;5050479;28;20052;-61
2023/05/12 10:34:00;;;;;;;9.27;8.38;;;21.70;99.90;;;;;;5049474;28;20041;-63
2023/05/12 10:36:26;;;;;;;9.52;8.60;;;21.90;99.90;;;;;;5048504;28;20171;-62
2023/05/12 10:38:52;;;;;;;8.80;8.00;;;21.80;99.90;;;;;;5050566;28;20040;-62
2023/05/12 10:41:36;;;;;;;5.80;5.10;;;21.80;99.90;;;;;;5051788;28;20559;-64
2023/05/12 10:44:01;;;;;;;7.18;6.22;;;21.80;99.90;;;;;;5049548;28;20095;-62
2023/05/12 10:46:27;;;;;;;7.65;5.63;;;22.10;99.90;;;;;;5050273;28;20435;-61
2023/05/12 10:48:59;;;;;;;8.18;6.43;;;22.30;99.90;;;;;;5051446;28;20144;-62
2023/05/12 10:51:27;;;;;;;9.10;7.57;;;22.60;99.90;;;;;;5046188;28;20049;-61
2023/05/12 10:54:02;;;;;;;5.38;4.88;;;22.90;99.90;;;;;;5051286;28;20057;-61
2023/05/12 10:56:48;;;;;;;5.18;4.68;;;22.70;99.90;;;;;;5046437;28;20040;-62
2023/05/12 10:59:16;;;;;;;5.75;5.15;;;22.40;99.90;;;;;;5042814;28;20045;-62
2023/05/12 11:02:04;;;;;;;5.32;4.60;;;22.50;99.90;;;;;;5048508;28;20045;-62
2023/05/12 11:04:59;;;;;;;3.70;3.40;;;22.80;99.90;;;;;;5040553;28;20045;-62
2023/05/12 11:07:30;;;;;;;2.83;2.53;;;23.00;99.90;;;;;;5046916;28;20069;-63
2023/05/12 11:09:58;;;;;;;3.65;3.00;;;23.20;99.90;;;;;;5049327;28;20137;-62
2023/05/12 11:12:26;;;;;;;6.72;3.50;;;23.00;99.90;;;;;;5047285;28;20037;-63
2023/05/12 11:14:52;;;;;;;4.45;3.28;;;22.90;99.90;;;;;;5046114;28;20029;-63
2023/05/12 11:17:17;;;;;;;4.85;3.50;;;22.70;99.90;;;;;;5049219;28;20048;-63
2023/05/12 11:19:49;;;;;;;3.60;3.30;;;22.60;99.90;;;;;;5046558;28;20041;-64
2023/05/12 11:22:20;;;;;;;3.90;3.28;;;22.30;99.90;;;;;;5053847;28;20048;-64
2023/05/12 11:24:46;;;;;;;6.05;4.25;;;22.20;99.90;;;;;;5049316;28;20041;-63
2023/05/12 11:27:17;;;;;;;6.00;4.60;;;22.20;99.90;;;;;;5048660;28;20041;-62
2023/05/12 11:29:45;;;;;;;4.35;3.95;;;22.30;99.90;;;;;;5065254;28;20047;-61
2023/05/12 11:32:11;;;;;;;5.60;4.38;;;22.40;99.90;;;;;;5047356;28;20393;-62
2023/05/12 11:34:38;;;;;;;4.32;3.92;;;22.70;99.90;;;;;;5049478;28;20071;-62
2023/05/12 11:37:05;;;;;;;4.50;3.50;;;22.80;99.90;;;;;;5045657;28;20033;-64
2023/05/12 11:39:31;;;;;;;6.07;4.13;;;23.10;99.90;;;;;;5048377;28;20064;-63
2023/05/12 11:42:05;;;;;;;3.97;3.47;;;23.40;99.90;;;;;;5048778;28;20444;-63
2023/05/12 11:44:31;;;;;;;6.50;4.00;;;23.70;99.90;;;;;;5048194;28;20040;-64
2023/05/12 11:47:24;;;;;;;5.65;4.43;;;23.80;99.90;;;;;;5047593;28;20049;-63
2023/05/12 11:49:54;;;;;;;4.60;3.88;;;23.60;99.90;;;;;;5022464;28;20060;-62
2023/05/12 11:52:21;;;;;;;4.50;4.10;;;23.50;99.90;;;;;;5038943;28;20128;-62
2023/05/12 11:54:58;;;;;;;7.47;4.28;;;23.30;99.90;;;;;;5044453;28;20128;-64
2023/05/12 11:57:33;;;;;;;4.95;4.07;;;23.10;99.90;;;;;;5047397;28;20041;-61
2023/05/12 12:00:03;;;;;;;4.90;4.50;;;22.90;99.90;;;;;;5063467;28;20036;-63
2023/05/12 12:02:29;;;;;;;5.13;4.63;;;22.80;99.90;;;;;;5049189;28;20036;-63
2023/05/12 12:04:55;;;;;;;5.15;4.40;;;22.90;99.90;;;;;;5049192;28;20032;-63
2023/05/12 12:07:32;;;;;;;6.07;3.70;;;23.10;99.90;;;;;;5048558;28;20217;-60
2023/05/12 12:09:58;;;;;;;7.53;4.03;;;23.20;99.90;;;;;;5048367;28;20088;-62
2023/05/12 12:12:24;;;;;;;7.28;4.15;;;23.30;99.90;;;;;;5046511;28;20433;-63
2023/05/12 12:14:50;;;;;;;5.38;3.65;;;23.30;99.90;;;;;;5052125;28;20118;-62
2023/05/12 12:17:16;;;;;;;4.45;3.67;;;23.50;99.90;;;;;;5046764;28;20519;-62
2023/05/12 12:19:42;;;;;;;4.30;3.90;;;23.50;99.90;;;;;;5050017;28;20041;-62
2023/05/12 12:22:08;;;;;;;5.95;4.60;;;23.60;99.90;;;;;;5049176;28;20033;-62
2023/05/12 12:24:33;;;;;;;6.03;3.83;;;23.70;99.90;;;;;;5051794;28;20077;-63
2023/05/12 12:26:59;;;;;;;4.60;4.20;;;23.70;99.90;;;;;;5050263;28;20036;-63
2023/05/12 12:29:27;;;;;;;5.13;3.65;;;23.70;99.90;;;;;;5051944;28;20246;-63